sensor_id;sensor_type;location;lat;lon;timestamp;P1;durP1;ratioP1;P2;durP2;ratioP2
48524;SDS011;34316;51.514;-0.178;2023-02-28T00:01:12;21.63;;;15.43;;
48524;SDS011;34316;51.514;-0.178;2023-02-28T00:03:14;23.05;;;14.38;;
48524;SDS011;34316;51.514;-0.178;2023-02-28T00:05:17;23.65;;;15.35;;
48524;SDS011;34316;51.514;-0.178;2023-02-28T00:07:20;22.15;;;14.75;;
48524;SDS011;34316;51.514;-0.178;2023-02-28T00:09:22;23.70;;;15.30;;
48524;SDS011;34316;51.514;-0.178;2023-02-28T00:11:24;21.80;;;14.63;;
48524;SDS011;34316;51.514;-0.178;2023-02-28T00:13:25;20.85;;;14.35;;
48524;SDS011;34316;51.514;-0.178;2023-02-28T00:15:27;23.10;;;13.57;;
48524;SDS011;34316;51.514;-0.178;2023-02-28T00:17:29;18.73;;;12.48;;
48524;SDS011;34316;51.514;-0.178;2023-02-28T00:19:30;20.13;;;12.73;;
48524;SDS011;34316;51.514;-0.178;2023-02-28T00:21:32;19.40;;;11.73;;
48524;SDS011;34316;51.514;-0.178;2023-02-28T00:23:34;17.95;;;12.30;;
48524;SDS011;34316;51.514;-0.178;2023-02-28T00:25:36;22.77;;;15.68;;
48524;SDS011;34316;51.514;-0.178;2023-02-28T00:27:38;35.20;;;23.35;;
48524;SDS011;34316;51.514;-0.178;2023-02-28T00:29:40;28.63;;;17.58;;
48524;SDS011;34316;51.514;-0.178;2023-02-28T00:31:42;28.45;;;18.58;;
48524;SDS011;34316;51.514;-0.178;2023-02-28T00:33:43;23.15;;;16.67;;
48524;SDS011;34316;51.514;-0.178;2023-02-28T00:35:45;19.38;;;12.85;;
48524;SDS011;34316;51.514;-0.178;2023-02-28T00:37:47;20.85;;;13.30;;
48524;SDS011;34316;51.514;-0.178;2023-02-28T00:39:49;18.00;;;11.32;;
48524;SDS011;34316;51.514;-0.178;2023-02-28T00:41:51;19.30;;;12.20;;
48524;SDS011;34316;51.514;-0.178;2023-02-28T00:43:53;18.25;;;13.02;;
48524;SDS011;34316;51.514;-0.178;2023-02-28T00:45:54;21.83;;;13.00;;
48524;SDS011;34316;51.514;-0.178;2023-02-28T00:47:56;21.27;;;12.65;;
48524;SDS011;34316;51.514;-0.178;2023-02-28T00:49:57;20.70;;;12.63;;
48524;SDS011;34316;51.514;-0.178;2023-02-28T00:51:59;20.90;;;12.40;;
48524;SDS011;34316;51.514;-0.178;2023-02-28T00:54:01;21.13;;;14.07;;
48524;SDS011;34316;51.514;-0.178;2023-02-28T00:56:03;19.45;;;12.98;;
48524;SDS011;34316;51.514;-0.178;2023-02-28T00:58:05;21.17;;;12.73;;
48524;SDS011;34316;51.514;-0.178;2023-02-28T01:00:07;19.10;;;13.35;;
48524;SDS011;34316;51.514;-0.178;2023-02-28T01:02:09;19.05;;;13.07;;
48524;SDS011;34316;51.514;-0.178;2023-02-28T01:04:11;20.02;;;14.38;;
48524;SDS011;34316;51.514;-0.178;2023-02-28T01:06:13;28.10;;;16.83;;
48524;SDS011;34316;51.514;-0.178;2023-02-28T01:08:14;25.27;;;17.25;;
48524;SDS011;34316;51.514;-0.178;2023-02-28T01:10:16;27.27;;;17.48;;
48524;SDS011;34316;51.514;-0.178;2023-02-28T01:12:18;28.98;;;18.77;;
48524;SDS011;34316;51.514;-0.178;2023-02-28T01:14:20;30.98;;;21.00;;
48524;SDS011;34316;51.514;-0.178;2023-02-28T01:16:21;33.17;;;20.30;;
48524;SDS011;34316;51.514;-0.178;2023-02-28T01:18:23;29.63;;;20.70;;
48524;SDS011;34316;51.514;-0.178;2023-02-28T01:20:25;31.15;;;20.65;;
48524;SDS011;34316;51.514;-0.178;2023-02-28T01:22:27;32.42;;;22.60;;
48524;SDS011;34316;51.514;-0.178;2023-02-28T01:24:29;34.53;;;22.88;;
48524;SDS011;34316;51.514;-0.178;2023-02-28T01:26:31;36.67;;;23.23;;
48524;SDS011;34316;51.514;-0.178;2023-02-28T01:28:33;33.92;;;22.90;;
48524;SDS011;34316;51.514;-0.178;2023-02-28T01:30:35;39.60;;;25.38;;
48524;SDS011;34316;51.514;-0.178;2023-02-28T01:32:37;37.53;;;25.98;;
48524;SDS011;34316;51.514;-0.178;2023-02-28T01:34:38;38.88;;;25.27;;
48524;SDS011;34316;51.514;-0.178;2023-02-28T01:36:40;37.97;;;25.33;;
48524;SDS011;34316;51.514;-0.178;2023-02-28T01:38:42;39.75;;;25.52;;
48524;SDS011;34316;51.514;-0.178;2023-02-28T01:40:44;40.70;;;26.65;;
48524;SDS011;34316;51.514;-0.178;2023-02-28T01:42:45;40.47;;;27.20;;
48524;SDS011;34316;51.514;-0.178;2023-02-28T01:47:07;35.42;;;23.40;;
48524;SDS011;34316;51.514;-0.178;2023-02-28T01:49:09;36.03;;;21.77;;
48524;SDS011;34316;51.514;-0.178;2023-02-28T01:51:17;38.85;;;23.20;;
48524;SDS011;34316;51.514;-0.178;2023-02-28T01:53:25;38.80;;;23.40;;
48524;SDS011;34316;51.514;-0.178;2023-02-28T01:55:31;40.88;;;25.00;;
48524;SDS011;34316;51.514;-0.178;2023-02-28T01:57:34;37.40;;;23.25;;
48524;SDS011;34316;51.514;-0.178;2023-02-28T01:59:41;40.40;;;23.33;;
48524;SDS011;34316;51.514;-0.178;2023-02-28T02:01:48;39.30;;;25.35;;
48524;SDS011;34316;51.514;-0.178;2023-02-28T02:03:51;39.53;;;25.33;;
48524;SDS011;34316;51.514;-0.178;2023-02-28T02:05:56;43.75;;;25.08;;
48524;SDS011;34316;51.514;-0.178;2023-02-28T02:08:01;43.65;;;25.60;;
48524;SDS011;34316;51.514;-0.178;2023-02-28T02:10:26;49.17;;;28.27;;
48524;SDS011;34316;51.514;-0.178;2023-02-28T02:15:08;46.42;;;26.77;;
48524;SDS011;34316;51.514;-0.178;2023-02-28T02:17:26;46.22;;;28.15;;
48524;SDS011;34316;51.514;-0.178;2023-02-28T02:29:35;47.63;;;27.77;;
48524;SDS011;34316;51.514;-0.178;2023-02-28T02:32:32;46.05;;;26.45;;
48524;SDS011;34316;51.514;-0.178;2023-02-28T02:47:59;49.90;;;27.05;;
48524;SDS011;34316;51.514;-0.178;2023-02-28T02:50:02;56.35;;;29.40;;
48524;SDS011;34316;51.514;-0.178;2023-02-28T02:52:10;53.45;;;27.67;;
48524;SDS011;34316;51.514;-0.178;2023-02-28T02:54:15;54.42;;;27.98;;
48524;SDS011;34316;51.514;-0.178;2023-02-28T02:56:19;56.17;;;28.58;;
48524;SDS011;34316;51.514;-0.178;2023-02-28T02:58:24;58.78;;;29.02;;
48524;SDS011;34316;51.514;-0.178;2023-02-28T03:00:30;53.83;;;27.70;;
48524;SDS011;34316;51.514;-0.178;2023-02-28T03:02:35;56.30;;;28.55;;
48524;SDS011;34316;51.514;-0.178;2023-02-28T03:04:40;56.17;;;28.83;;
48524;SDS011;34316;51.514;-0.178;2023-02-28T03:06:44;54.25;;;27.65;;
48524;SDS011;34316;51.514;-0.178;2023-02-28T03:08:45;64.63;;;28.67;;
48524;SDS011;34316;51.514;-0.178;2023-02-28T03:10:51;52.22;;;28.50;;
48524;SDS011;34316;51.514;-0.178;2023-02-28T03:12:57;53.22;;;28.60;;
48524;SDS011;34316;51.514;-0.178;2023-02-28T03:21:34;45.25;;;26.83;;
48524;SDS011;34316;51.514;-0.178;2023-02-28T03:23:45;48.22;;;26.90;;
48524;SDS011;34316;51.514;-0.178;2023-02-28T03:25:54;54.70;;;29.38;;
48524;SDS011;34316;51.514;-0.178;2023-02-28T03:30:15;48.40;;;26.27;;
48524;SDS011;34316;51.514;-0.178;2023-02-28T03:35:00;47.92;;;26.13;;
48524;SDS011;34316;51.514;-0.178;2023-02-28T03:37:11;46.47;;;26.17;;
48524;SDS011;34316;51.514;-0.178;2023-02-28T03:39:18;46.05;;;25.85;;
48524;SDS011;34316;51.514;-0.178;2023-02-28T03:41:23;45.13;;;26.15;;
48524;SDS011;34316;51.514;-0.178;2023-02-28T03:43:31;44.65;;;24.70;;
48524;SDS011;34316;51.514;-0.178;2023-02-28T03:45:36;48.67;;;26.50;;
48524;SDS011;34316;51.514;-0.178;2023-02-28T03:47:40;47.67;;;27.83;;
48524;SDS011;34316;51.514;-0.178;2023-02-28T03:49:46;52.33;;;27.15;;
48524;SDS011;34316;51.514;-0.178;2023-02-28T03:51:50;47.55;;;26.45;;
48524;SDS011;34316;51.514;-0.178;2023-02-28T03:53:54;45.38;;;27.15;;
48524;SDS011;34316;51.514;-0.178;2023-02-28T03:56:01;49.75;;;27.40;;
48524;SDS011;34316;51.514;-0.178;2023-02-28T03:58:11;46.58;;;26.25;;
48524;SDS011;34316;51.514;-0.178;2023-02-28T04:00:21;46.63;;;25.20;;
48524;SDS011;34316;51.514;-0.178;2023-02-28T04:02:29;45.33;;;25.65;;
48524;SDS011;34316;51.514;-0.178;2023-02-28T04:04:31;47.33;;;27.15;;
48524;SDS011;34316;51.514;-0.178;2023-02-28T04:06:33;50.30;;;28.05;;
48524;SDS011;34316;51.514;-0.178;2023-02-28T04:08:35;49.38;;;27.42;;
48524;SDS011;34316;51.514;-0.178;2023-02-28T04:10:39;49.10;;;26.67;;
48524;SDS011;34316;51.514;-0.178;2023-02-28T04:12:41;49.83;;;27.15;;
48524;SDS011;34316;51.514;-0.178;2023-02-28T04:14:43;49.08;;;27.23;;
48524;SDS011;34316;51.514;-0.178;2023-02-28T04:16:48;45.00;;;25.30;;
48524;SDS011;34316;51.514;-0.178;2023-02-28T04:18:49;47.30;;;27.77;;
48524;SDS011;34316;51.514;-0.178;2023-02-28T04:20:51;47.50;;;27.55;;
48524;SDS011;34316;51.514;-0.178;2023-02-28T04:22:53;40.92;;;25.20;;
48524;SDS011;34316;51.514;-0.178;2023-02-28T04:24:54;42.30;;;25.50;;
48524;SDS011;34316;51.514;-0.178;2023-02-28T04:26:56;42.03;;;25.27;;
48524;SDS011;34316;51.514;-0.178;2023-02-28T04:28:59;40.83;;;24.65;;
48524;SDS011;34316;51.514;-0.178;2023-02-28T04:31:02;40.85;;;25.80;;
48524;SDS011;34316;51.514;-0.178;2023-02-28T04:33:05;41.85;;;24.35;;
48524;SDS011;34316;51.514;-0.178;2023-02-28T04:35:07;40.33;;;24.30;;
48524;SDS011;34316;51.514;-0.178;2023-02-28T04:37:12;40.15;;;23.83;;
48524;SDS011;34316;51.514;-0.178;2023-02-28T04:39:15;37.25;;;22.85;;
48524;SDS011;34316;51.514;-0.178;2023-02-28T04:41:19;37.97;;;23.58;;
48524;SDS011;34316;51.514;-0.178;2023-02-28T04:43:25;45.00;;;25.02;;
48524;SDS011;34316;51.514;-0.178;2023-02-28T04:45:31;38.35;;;24.10;;
48524;SDS011;34316;51.514;-0.178;2023-02-28T04:47:35;44.47;;;24.48;;
48524;SDS011;34316;51.514;-0.178;2023-02-28T04:49:37;43.17;;;24.67;;
48524;SDS011;34316;51.514;-0.178;2023-02-28T04:51:39;46.65;;;25.40;;
48524;SDS011;34316;51.514;-0.178;2023-02-28T04:53:41;48.67;;;25.85;;
48524;SDS011;34316;51.514;-0.178;2023-02-28T04:55:43;46.78;;;25.80;;
48524;SDS011;34316;51.514;-0.178;2023-02-28T04:57:45;42.70;;;25.27;;
48524;SDS011;34316;51.514;-0.178;2023-02-28T04:59:47;43.17;;;25.40;;
48524;SDS011;34316;51.514;-0.178;2023-02-28T05:01:49;46.55;;;26.45;;
48524;SDS011;34316;51.514;-0.178;2023-02-28T05:03:51;45.25;;;26.17;;
48524;SDS011;34316;51.514;-0.178;2023-02-28T05:05:54;42.50;;;26.13;;
48524;SDS011;34316;51.514;-0.178;2023-02-28T05:07:56;45.83;;;25.58;;
48524;SDS011;34316;51.514;-0.178;2023-02-28T05:09:58;43.83;;;23.73;;
48524;SDS011;34316;51.514;-0.178;2023-02-28T05:12:00;40.63;;;22.55;;
48524;SDS011;34316;51.514;-0.178;2023-02-28T05:14:02;40.65;;;24.25;;
48524;SDS011;34316;51.514;-0.178;2023-02-28T05:16:05;42.60;;;24.77;;
48524;SDS011;34316;51.514;-0.178;2023-02-28T05:18:08;40.33;;;24.42;;
48524;SDS011;34316;51.514;-0.178;2023-02-28T05:20:10;42.50;;;25.13;;
48524;SDS011;34316;51.514;-0.178;2023-02-28T05:22:16;38.88;;;24.38;;
48524;SDS011;34316;51.514;-0.178;2023-02-28T05:24:18;43.97;;;25.23;;
48524;SDS011;34316;51.514;-0.178;2023-02-28T05:26:29;38.40;;;23.17;;
48524;SDS011;34316;51.514;-0.178;2023-02-28T05:28:33;41.50;;;23.73;;
48524;SDS011;34316;51.514;-0.178;2023-02-28T05:30:35;44.38;;;24.60;;
48524;SDS011;34316;51.514;-0.178;2023-02-28T05:32:37;46.67;;;25.85;;
48524;SDS011;34316;51.514;-0.178;2023-02-28T05:34:39;40.88;;;24.80;;
48524;SDS011;34316;51.514;-0.178;2023-02-28T05:36:41;37.50;;;22.38;;
48524;SDS011;34316;51.514;-0.178;2023-02-28T05:38:45;36.90;;;22.33;;
48524;SDS011;34316;51.514;-0.178;2023-02-28T05:40:48;36.95;;;21.77;;
48524;SDS011;34316;51.514;-0.178;2023-02-28T05:42:50;39.25;;;22.83;;
48524;SDS011;34316;51.514;-0.178;2023-02-28T05:44:51;37.78;;;22.23;;
48524;SDS011;34316;51.514;-0.178;2023-02-28T05:46:53;38.75;;;22.30;;
48524;SDS011;34316;51.514;-0.178;2023-02-28T05:48:55;37.63;;;22.75;;
48524;SDS011;34316;51.514;-0.178;2023-02-28T05:50:59;37.65;;;21.48;;
48524;SDS011;34316;51.514;-0.178;2023-02-28T05:53:00;33.00;;;21.02;;
48524;SDS011;34316;51.514;-0.178;2023-02-28T05:55:02;32.95;;;20.58;;
48524;SDS011;34316;51.514;-0.178;2023-02-28T05:57:04;40.00;;;21.90;;
48524;SDS011;34316;51.514;-0.178;2023-02-28T05:59:25;37.33;;;21.45;;
48524;SDS011;34316;51.514;-0.178;2023-02-28T06:03:35;39.45;;;20.73;;
48524;SDS011;34316;51.514;-0.178;2023-02-28T06:05:37;42.10;;;20.80;;
48524;SDS011;34316;51.514;-0.178;2023-02-28T06:07:39;38.90;;;22.55;;
48524;SDS011;34316;51.514;-0.178;2023-02-28T06:09:41;36.58;;;21.27;;
48524;SDS011;34316;51.514;-0.178;2023-02-28T06:11:43;41.90;;;22.33;;
48524;SDS011;34316;51.514;-0.178;2023-02-28T06:13:45;36.83;;;20.95;;
48524;SDS011;34316;51.514;-0.178;2023-02-28T06:15:47;45.58;;;21.65;;
48524;SDS011;34316;51.514;-0.178;2023-02-28T06:17:48;40.83;;;21.90;;
48524;SDS011;34316;51.514;-0.178;2023-02-28T06:19:50;37.78;;;21.60;;
48524;SDS011;34316;51.514;-0.178;2023-02-28T06:21:52;36.42;;;21.17;;
48524;SDS011;34316;51.514;-0.178;2023-02-28T06:23:55;37.92;;;23.33;;
48524;SDS011;34316;51.514;-0.178;2023-02-28T06:25:57;34.55;;;20.95;;
48524;SDS011;34316;51.514;-0.178;2023-02-28T06:27:59;36.63;;;21.70;;
48524;SDS011;34316;51.514;-0.178;2023-02-28T06:30:01;38.60;;;21.15;;
48524;SDS011;34316;51.514;-0.178;2023-02-28T06:32:02;39.47;;;23.20;;
48524;SDS011;34316;51.514;-0.178;2023-02-28T06:34:04;37.13;;;21.77;;
48524;SDS011;34316;51.514;-0.178;2023-02-28T06:36:06;37.88;;;22.48;;
48524;SDS011;34316;51.514;-0.178;2023-02-28T06:38:08;40.38;;;23.02;;
48524;SDS011;34316;51.514;-0.178;2023-02-28T06:40:11;39.15;;;23.05;;
48524;SDS011;34316;51.514;-0.178;2023-02-28T06:42:14;35.33;;;22.90;;
48524;SDS011;34316;51.514;-0.178;2023-02-28T06:44:16;41.38;;;23.52;;
48524;SDS011;34316;51.514;-0.178;2023-02-28T06:46:18;42.28;;;23.17;;
48524;SDS011;34316;51.514;-0.178;2023-02-28T06:48:20;41.75;;;24.85;;
48524;SDS011;34316;51.514;-0.178;2023-02-28T06:50:22;43.22;;;25.00;;
48524;SDS011;34316;51.514;-0.178;2023-02-28T06:52:23;38.70;;;24.40;;
48524;SDS011;34316;51.514;-0.178;2023-02-28T06:54:25;45.60;;;25.88;;
48524;SDS011;34316;51.514;-0.178;2023-02-28T06:56:27;42.83;;;24.02;;
48524;SDS011;34316;51.514;-0.178;2023-02-28T06:58:29;43.97;;;25.20;;
48524;SDS011;34316;51.514;-0.178;2023-02-28T07:00:33;46.53;;;25.83;;
48524;SDS011;34316;51.514;-0.178;2023-02-28T07:02:35;41.63;;;25.67;;
48524;SDS011;34316;51.514;-0.178;2023-02-28T07:04:37;39.38;;;23.88;;
48524;SDS011;34316;51.514;-0.178;2023-02-28T07:06:41;46.13;;;24.75;;
48524;SDS011;34316;51.514;-0.178;2023-02-28T07:08:43;45.10;;;26.65;;
48524;SDS011;34316;51.514;-0.178;2023-02-28T07:10:45;42.47;;;25.38;;
48524;SDS011;34316;51.514;-0.178;2023-02-28T07:12:47;42.97;;;24.45;;
48524;SDS011;34316;51.514;-0.178;2023-02-28T07:14:49;43.00;;;24.98;;
48524;SDS011;34316;51.514;-0.178;2023-02-28T07:16:50;41.67;;;24.67;;
48524;SDS011;34316;51.514;-0.178;2023-02-28T07:18:52;44.03;;;25.10;;
48524;SDS011;34316;51.514;-0.178;2023-02-28T07:20:54;51.05;;;25.65;;
48524;SDS011;34316;51.514;-0.178;2023-02-28T07:22:56;41.35;;;25.10;;
48524;SDS011;34316;51.514;-0.178;2023-02-28T07:25:00;48.58;;;27.70;;
48524;SDS011;34316;51.514;-0.178;2023-02-28T07:27:02;46.67;;;26.85;;
48524;SDS011;34316;51.514;-0.178;2023-02-28T07:29:04;57.58;;;28.50;;
48524;SDS011;34316;51.514;-0.178;2023-02-28T07:31:06;49.45;;;26.83;;
48524;SDS011;34316;51.514;-0.178;2023-02-28T07:33:08;44.65;;;27.83;;
48524;SDS011;34316;51.514;-0.178;2023-02-28T07:35:10;50.28;;;27.90;;
48524;SDS011;34316;51.514;-0.178;2023-02-28T07:37:11;46.78;;;27.50;;
48524;SDS011;34316;51.514;-0.178;2023-02-28T07:39:13;50.38;;;27.90;;
48524;SDS011;34316;51.514;-0.178;2023-02-28T07:41:15;46.67;;;26.70;;
48524;SDS011;34316;51.514;-0.178;2023-02-28T07:43:18;45.53;;;26.23;;
48524;SDS011;34316;51.514;-0.178;2023-02-28T07:45:19;41.47;;;25.95;;
48524;SDS011;34316;51.514;-0.178;2023-02-28T07:47:24;43.25;;;27.23;;
48524;SDS011;34316;51.514;-0.178;2023-02-28T07:49:26;45.75;;;28.08;;
48524;SDS011;34316;51.514;-0.178;2023-02-28T07:51:28;57.92;;;31.13;;
48524;SDS011;34316;51.514;-0.178;2023-02-28T07:53:30;61.65;;;35.45;;
48524;SDS011;34316;51.514;-0.178;2023-02-28T07:55:32;69.90;;;34.33;;
48524;SDS011;34316;51.514;-0.178;2023-02-28T07:57:34;59.83;;;34.95;;
48524;SDS011;34316;51.514;-0.178;2023-02-28T07:59:35;60.80;;;34.63;;
48524;SDS011;34316;51.514;-0.178;2023-02-28T08:01:39;64.47;;;35.47;;
48524;SDS011;34316;51.514;-0.178;2023-02-28T08:03:41;69.20;;;37.75;;
48524;SDS011;34316;51.514;-0.178;2023-02-28T08:05:46;67.93;;;36.22;;
48524;SDS011;34316;51.514;-0.178;2023-02-28T08:07:49;62.70;;;37.22;;
48524;SDS011;34316;51.514;-0.178;2023-02-28T08:09:51;64.70;;;36.83;;
48524;SDS011;34316;51.514;-0.178;2023-02-28T08:11:53;64.97;;;36.00;;
48524;SDS011;34316;51.514;-0.178;2023-02-28T08:13:54;60.58;;;35.75;;
48524;SDS011;34316;51.514;-0.178;2023-02-28T08:15:56;65.53;;;36.72;;
48524;SDS011;34316;51.514;-0.178;2023-02-28T08:17:58;65.47;;;38.10;;
48524;SDS011;34316;51.514;-0.178;2023-02-28T08:20:00;65.45;;;38.90;;
48524;SDS011;34316;51.514;-0.178;2023-02-28T08:22:06;67.00;;;38.70;;
48524;SDS011;34316;51.514;-0.178;2023-02-28T08:24:07;70.80;;;39.58;;
48524;SDS011;34316;51.514;-0.178;2023-02-28T08:26:09;69.95;;;38.00;;
48524;SDS011;34316;51.514;-0.178;2023-02-28T08:28:11;78.90;;;40.25;;
48524;SDS011;34316;51.514;-0.178;2023-02-28T08:30:13;80.55;;;40.63;;
48524;SDS011;34316;51.514;-0.178;2023-02-28T08:32:15;73.78;;;42.17;;
48524;SDS011;34316;51.514;-0.178;2023-02-28T08:36:31;70.28;;;39.50;;
48524;SDS011;34316;51.514;-0.178;2023-02-28T08:38:33;71.18;;;41.78;;
48524;SDS011;34316;51.514;-0.178;2023-02-28T08:40:36;72.10;;;38.77;;
48524;SDS011;34316;51.514;-0.178;2023-02-28T08:42:37;69.88;;;37.67;;
48524;SDS011;34316;51.514;-0.178;2023-02-28T08:44:39;70.47;;;38.40;;
48524;SDS011;34316;51.514;-0.178;2023-02-28T08:46:41;70.82;;;39.20;;
48524;SDS011;34316;51.514;-0.178;2023-02-28T08:48:43;75.47;;;37.30;;
48524;SDS011;34316;51.514;-0.178;2023-02-28T08:50:54;65.82;;;37.10;;
48524;SDS011;34316;51.514;-0.178;2023-02-28T08:53:08;66.85;;;37.42;;
48524;SDS011;34316;51.514;-0.178;2023-02-28T08:55:09;69.80;;;37.15;;
48524;SDS011;34316;51.514;-0.178;2023-02-28T08:57:11;69.90;;;36.20;;
48524;SDS011;34316;51.514;-0.178;2023-02-28T08:59:13;68.78;;;35.05;;
48524;SDS011;34316;51.514;-0.178;2023-02-28T09:01:19;61.63;;;34.35;;
48524;SDS011;34316;51.514;-0.178;2023-02-28T09:03:22;64.28;;;33.85;;
48524;SDS011;34316;51.514;-0.178;2023-02-28T09:05:25;63.75;;;36.35;;
48524;SDS011;34316;51.514;-0.178;2023-02-28T09:07:27;59.53;;;33.92;;
48524;SDS011;34316;51.514;-0.178;2023-02-28T09:09:29;65.32;;;34.53;;
48524;SDS011;34316;51.514;-0.178;2023-02-28T09:11:30;64.97;;;35.17;;
48524;SDS011;34316;51.514;-0.178;2023-02-28T09:13:32;60.97;;;32.10;;
48524;SDS011;34316;51.514;-0.178;2023-02-28T09:15:34;55.90;;;30.23;;
48524;SDS011;34316;51.514;-0.178;2023-02-28T09:17:38;64.95;;;32.03;;
48524;SDS011;34316;51.514;-0.178;2023-02-28T09:19:40;70.95;;;34.08;;
48524;SDS011;34316;51.514;-0.178;2023-02-28T09:21:42;65.63;;;32.25;;
48524;SDS011;34316;51.514;-0.178;2023-02-28T09:23:43;59.78;;;30.58;;
48524;SDS011;34316;51.514;-0.178;2023-02-28T09:25:50;62.10;;;31.00;;
48524;SDS011;34316;51.514;-0.178;2023-02-28T09:27:53;56.83;;;29.33;;
48524;SDS011;34316;51.514;-0.178;2023-02-28T09:29:54;50.15;;;28.83;;
48524;SDS011;34316;51.514;-0.178;2023-02-28T09:31:56;60.42;;;29.90;;
48524;SDS011;34316;51.514;-0.178;2023-02-28T09:33:59;56.42;;;31.00;;
48524;SDS011;34316;51.514;-0.178;2023-02-28T09:36:02;54.78;;;29.30;;
48524;SDS011;34316;51.514;-0.178;2023-02-28T09:38:08;55.72;;;28.50;;
48524;SDS011;34316;51.514;-0.178;2023-02-28T09:40:11;56.83;;;30.25;;
48524;SDS011;34316;51.514;-0.178;2023-02-28T09:42:18;55.15;;;30.25;;
48524;SDS011;34316;51.514;-0.178;2023-02-28T09:44:33;57.83;;;30.20;;
48524;SDS011;34316;51.514;-0.178;2023-02-28T09:46:38;56.80;;;31.65;;
48524;SDS011;34316;51.514;-0.178;2023-02-28T09:48:45;57.20;;;30.65;;
48524;SDS011;34316;51.514;-0.178;2023-02-28T09:50:52;66.93;;;32.95;;
48524;SDS011;34316;51.514;-0.178;2023-02-28T09:52:57;73.18;;;38.22;;
48524;SDS011;34316;51.514;-0.178;2023-02-28T09:55:47;72.28;;;39.13;;
48524;SDS011;34316;51.514;-0.178;2023-02-28T09:57:45;79.88;;;42.80;;
48524;SDS011;34316;51.514;-0.178;2023-02-28T10:06:46;84.78;;;48.03;;
48524;SDS011;34316;51.514;-0.178;2023-02-28T10:08:52;85.07;;;44.67;;
48524;SDS011;34316;51.514;-0.178;2023-02-28T10:11:15;80.43;;;45.13;;
48524;SDS011;34316;51.514;-0.178;2023-02-28T10:16:06;84.93;;;45.33;;
48524;SDS011;34316;51.514;-0.178;2023-02-28T10:18:11;83.78;;;44.72;;
48524;SDS011;34316;51.514;-0.178;2023-02-28T10:20:17;77.38;;;42.72;;
48524;SDS011;34316;51.514;-0.178;2023-02-28T10:22:22;73.95;;;39.60;;
48524;SDS011;34316;51.514;-0.178;2023-02-28T10:24:41;52.35;;;31.48;;
48524;SDS011;34316;51.514;-0.178;2023-02-28T10:26:44;35.35;;;20.63;;
48524;SDS011;34316;51.514;-0.178;2023-02-28T10:28:46;43.05;;;23.00;;
48524;SDS011;34316;51.514;-0.178;2023-02-28T10:30:49;42.10;;;23.90;;
48524;SDS011;34316;51.514;-0.178;2023-02-28T10:32:52;46.15;;;25.88;;
48524;SDS011;34316;51.514;-0.178;2023-02-28T10:37:37;36.78;;;17.63;;
48524;SDS011;34316;51.514;-0.178;2023-02-28T10:39:43;39.72;;;20.48;;
48524;SDS011;34316;51.514;-0.178;2023-02-28T10:41:49;33.08;;;14.18;;
48524;SDS011;34316;51.514;-0.178;2023-02-28T10:50:31;24.13;;;11.65;;
48524;SDS011;34316;51.514;-0.178;2023-02-28T10:52:37;25.50;;;11.25;;
48524;SDS011;34316;51.514;-0.178;2023-02-28T10:54:46;17.05;;;10.95;;
48524;SDS011;34316;51.514;-0.178;2023-02-28T10:57:15;23.77;;;10.85;;
48524;SDS011;34316;51.514;-0.178;2023-02-28T10:59:22;21.85;;;11.65;;
48524;SDS011;34316;51.514;-0.178;2023-02-28T11:01:41;24.58;;;11.95;;
48524;SDS011;34316;51.514;-0.178;2023-02-28T11:03:47;30.08;;;11.75;;
48524;SDS011;34316;51.514;-0.178;2023-02-28T11:05:49;25.48;;;12.82;;
48524;SDS011;34316;51.514;-0.178;2023-02-28T11:07:52;23.98;;;11.30;;
48524;SDS011;34316;51.514;-0.178;2023-02-28T11:09:55;23.48;;;10.88;;
48524;SDS011;34316;51.514;-0.178;2023-02-28T11:11:59;22.08;;;11.95;;
48524;SDS011;34316;51.514;-0.178;2023-02-28T11:14:04;29.85;;;11.93;;
48524;SDS011;34316;51.514;-0.178;2023-02-28T11:16:08;21.75;;;11.00;;
48524;SDS011;34316;51.514;-0.178;2023-02-28T11:20:18;22.55;;;11.98;;
48524;SDS011;34316;51.514;-0.178;2023-02-28T11:22:24;26.70;;;10.60;;
48524;SDS011;34316;51.514;-0.178;2023-02-28T11:24:31;25.65;;;11.38;;
48524;SDS011;34316;51.514;-0.178;2023-02-28T11:26:40;19.33;;;10.30;;
48524;SDS011;34316;51.514;-0.178;2023-02-28T11:28:46;18.23;;;10.10;;
48524;SDS011;34316;51.514;-0.178;2023-02-28T11:30:59;26.75;;;11.88;;
48524;SDS011;34316;51.514;-0.178;2023-02-28T11:33:01;24.65;;;12.00;;
48524;SDS011;34316;51.514;-0.178;2023-02-28T11:37:28;26.33;;;12.07;;
48524;SDS011;34316;51.514;-0.178;2023-02-28T11:39:30;23.73;;;11.40;;
48524;SDS011;34316;51.514;-0.178;2023-02-28T11:41:44;28.63;;;14.18;;
48524;SDS011;34316;51.514;-0.178;2023-02-28T11:52:55;18.02;;;11.65;;
48524;SDS011;34316;51.514;-0.178;2023-02-28T11:55:13;27.15;;;12.15;;
48524;SDS011;34316;51.514;-0.178;2023-02-28T11:57:20;25.92;;;13.55;;
48524;SDS011;34316;51.514;-0.178;2023-02-28T12:02:24;23.88;;;12.52;;
48524;SDS011;34316;51.514;-0.178;2023-02-28T12:28:20;27.48;;;13.05;;
48524;SDS011;34316;51.514;-0.178;2023-02-28T12:30:26;25.30;;;12.13;;
48524;SDS011;34316;51.514;-0.178;2023-02-28T12:32:30;23.75;;;12.70;;
48524;SDS011;34316;51.514;-0.178;2023-02-28T12:34:38;25.95;;;12.13;;
48524;SDS011;34316;51.514;-0.178;2023-02-28T12:36:43;24.70;;;11.70;;
48524;SDS011;34316;51.514;-0.178;2023-02-28T12:38:51;20.08;;;11.23;;
48524;SDS011;34316;51.514;-0.178;2023-02-28T12:41:17;24.52;;;11.57;;
48524;SDS011;34316;51.514;-0.178;2023-02-28T12:43:22;23.38;;;11.75;;
48524;SDS011;34316;51.514;-0.178;2023-02-28T12:45:41;22.73;;;11.90;;
48524;SDS011;34316;51.514;-0.178;2023-02-28T12:47:48;29.17;;;13.35;;
48524;SDS011;34316;51.514;-0.178;2023-02-28T12:49:58;22.40;;;11.82;;
48524;SDS011;34316;51.514;-0.178;2023-02-28T12:52:02;21.52;;;11.90;;
48524;SDS011;34316;51.514;-0.178;2023-02-28T12:56:17;27.35;;;12.07;;
48524;SDS011;34316;51.514;-0.178;2023-02-28T12:58:35;21.52;;;11.68;;
48524;SDS011;34316;51.514;-0.178;2023-02-28T13:00:46;24.27;;;12.32;;
48524;SDS011;34316;51.514;-0.178;2023-02-28T13:09:51;24.08;;;11.93;;
48524;SDS011;34316;51.514;-0.178;2023-02-28T13:11:54;25.27;;;11.75;;
48524;SDS011;34316;51.514;-0.178;2023-02-28T13:14:01;26.55;;;12.05;;
48524;SDS011;34316;51.514;-0.178;2023-02-28T13:16:05;21.10;;;11.57;;
48524;SDS011;34316;51.514;-0.178;2023-02-28T13:18:20;24.23;;;12.38;;
48524;SDS011;34316;51.514;-0.178;2023-02-28T13:20:46;19.13;;;10.88;;
48524;SDS011;34316;51.514;-0.178;2023-02-28T13:22:49;24.90;;;11.93;;
48524;SDS011;34316;51.514;-0.178;2023-02-28T13:24:56;22.65;;;12.73;;
48524;SDS011;34316;51.514;-0.178;2023-02-28T13:31:17;31.70;;;12.43;;
48524;SDS011;34316;51.514;-0.178;2023-02-28T13:35:35;22.10;;;11.25;;
48524;SDS011;34316;51.514;-0.178;2023-02-28T13:37:42;26.52;;;11.50;;
48524;SDS011;34316;51.514;-0.178;2023-02-28T13:39:47;26.42;;;11.73;;
48524;SDS011;34316;51.514;-0.178;2023-02-28T13:41:54;22.13;;;11.00;;
48524;SDS011;34316;51.514;-0.178;2023-02-28T13:46:08;21.77;;;10.82;;
48524;SDS011;34316;51.514;-0.178;2023-02-28T13:52:27;17.83;;;10.05;;
48524;SDS011;34316;51.514;-0.178;2023-02-28T13:54:34;22.15;;;9.82;;
48524;SDS011;34316;51.514;-0.178;2023-02-28T13:57:12;27.08;;;11.10;;
48524;SDS011;34316;51.514;-0.178;2023-02-28T14:02:23;23.08;;;9.88;;
48524;SDS011;34316;51.514;-0.178;2023-02-28T14:04:48;22.90;;;10.20;;
48524;SDS011;34316;51.514;-0.178;2023-02-28T14:06:55;29.92;;;10.63;;